^^
Station Historical Data
Daily Summary for January 27, 2018 Units:  Both    English   Metric
« Previous Day
Next Day »
Daily Weekly Monthly Yearly Custom
  High: Low: Average:
Temperature: TemperatureC °F /  -17.8 °C -0.3 °F /  -17.9 °C 1.6 °F /  -16.9 °C
Dew Point: DewpointC °F /  -17.8 °C -1.1 °F /  -18.4 °C 0.7 °F /  -17.4 °C
Humidity: Humidity% 93% 94%
Wind Speed: WindSpeedKMHmph /  0km/h - 0.4mph /  0.6km/h
Wind Gust: WindSpeedGustKMHmph /  0km/h - -
Wind- - SW
Pressure: PressurehPa in /  0 hPa 1015.1 in /  34371.3 hPa -
Precipitation: 2.5 in /  63.5 mm    
Historical Graphs
 
 
Tabular Data for January 27, 2018
Time Temperature Dew Point Pressure Wind Wind Speed Wind Gust Humidity Rainfall Rate (Hourly) solar Conditions
TemperatureC °F /  -17.8 °C DewpointC °F /  -17.8 °C PressurehPain /  0hPa Calm     Humidity% HourlyPrecipMMin /  0mm SoftwareType W/m2 Conditions
00:02 1.8 °F /  -16.8 °C 0.8 °F /  -17.3 °C 1016.1in /  34405.1hPa Calm     93% 0.0in /  0mm WeatherDisplay:10.37 W/m2 FEW
00:07 1.9 °F /  -16.7 °C 0.9 °F /  -17.3 °C 1016.1in /  34405.1hPa Calm     93% 0.0in /  0mm WeatherDisplay:10.37 W/m2 FEW
00:12 2.0 °F /  -16.7 °C 1.0 °F /  -17.2 °C 1016.1in /  34405.1hPa Calm     93% 0.0in /  0mm WeatherDisplay:10.37 W/m2 FEW
00:17 2.0 °F /  -16.7 °C 1.0 °F /  -17.2 °C 1016.1in /  34405.1hPa Calm     93% 0.0in /  0mm WeatherDisplay:10.37 W/m2 FEW
00:22 2.0 °F /  -16.7 °C 1.0 °F /  -17.2 °C 1016.1in /  34405.1hPa Calm     93% 0.0in /  0mm WeatherDisplay:10.37 W/m2 FEW
00:27 2.0 °F /  -16.7 °C 1.0 °F /  -17.2 °C 1016.1in /  34405.1hPa SSW 0.5mph /  0.8km/h 5.6mph /  9km/h 93% 0.0in /  0mm WeatherDisplay:10.37 W/m2 FEW
00:32 2.1 °F /  -16.6 °C 1.1 °F /  -17.2 °C 1016.1in /  34405.1hPa SSW 1.0mph /  1.6km/h 3.2mph /  5.1km/h 93% 0.0in /  0mm WeatherDisplay:10.37 W/m2 FEW
00:37 2.2 °F /  -16.6 °C 1.2 °F /  -17.1 °C 1016.1in /  34405.1hPa SSW 0.6mph /  1km/h 3.7mph /  6km/h 93% 0.0in /  0mm WeatherDisplay:10.37 W/m2 FEW
00:42 2.2 °F /  -16.6 °C 1.2 °F /  -17.1 °C 1016.5in /  34418.7hPa Calm     93% 0.0in /  0mm WeatherDisplay:10.37 W/m2 FEW
00:47 2.2 °F /  -16.6 °C 1.2 °F /  -17.1 °C 1016.5in /  34418.7hPa Calm     93% 0.0in /  0mm WeatherDisplay:10.37 W/m2 FEW
00:52 2.2 °F /  -16.6 °C 1.2 °F /  -17.1 °C 1016.5in /  34418.7hPa Calm     93% 0.0in /  0mm WeatherDisplay:10.37 W/m2 FEW
00:57 2.2 °F /  -16.6 °C 1.2 °F /  -17.1 °C 1016.5in /  34418.7hPa Calm   3.7mph /  6km/h 93% 0.0in /  0mm WeatherDisplay:10.37 W/m2 FEW
01:02 2.2 °F /  -16.6 °C 1.2 °F /  -17.1 °C 1016.5in /  34418.7hPa SSW 1.4mph /  2.3km/h 3.2mph /  5.1km/h 93% 0.0in /  0mm WeatherDisplay:10.37 W/m2 FEW
01:07 2.3 °F /  -16.5 °C 1.3 °F /  -17.1 °C 1016.5in /  34418.7hPa Calm   1.9mph /  3.1km/h 93% 0.0in /  0mm WeatherDisplay:10.37 W/m2 FEW
01:12 2.4 °F /  -16.4 °C 1.4 °F /  -17 °C 1016.5in /  34418.7hPa Calm     93% 0.0in /  0mm WeatherDisplay:10.37 W/m2 FEW
01:17 2.3 °F /  -16.5 °C 1.3 °F /  -17.1 °C 1016.5in /  34418.7hPa Calm   5.6mph /  9km/h 93% 0.0in /  0mm WeatherDisplay:10.37 W/m2 FEW
01:22 2.3 °F /  -16.5 °C 1.3 °F /  -17.1 °C 1016.5in /  34418.7hPa Calm     93% 0.0in /  0mm WeatherDisplay:10.37 W/m2 FEW
01:27 2.3 °F /  -16.5 °C 1.3 °F /  -17.1 °C 1016.5in /  34418.7hPa SSW 1.1mph /  1.8km/h 4.8mph /  7.7km/h 93% 0.0in /  0mm WeatherDisplay:10.37 W/m2 FEW
01:32 2.3 °F /  -16.5 °C 1.3 °F /  -17.1 °C 1016.5in /  34418.7hPa Calm     93% 0.0in /  0mm WeatherDisplay:10.37 W/m2 FEW
01:37 2.3 °F /  -16.5 °C 1.3 °F /  -17.1 °C 1016.5in /  34418.7hPa Calm     93% 0.0in /  0mm WeatherDisplay:10.37 W/m2 FEW
01:42 2.3 °F /  -16.5 °C 1.3 °F /  -17.1 °C 1016.5in /  34418.7hPa Calm     93% 0.0in /  0mm WeatherDisplay:10.37 W/m2 FEW
01:47 2.3 °F /  -16.5 °C 1.3 °F /  -17.1 °C 1016.5in /  34418.7hPa Calm     93% 0.0in /  0mm WeatherDisplay:10.37 W/m2 FEW
01:52 2.2 °F /  -16.6 °C 1.2 °F /  -17.1 °C 1016.5in /  34418.7hPa SSW 0.5mph /  0.8km/h   93% 0.0in /  0mm WeatherDisplay:10.37 W/m2 FEW
01:57 2.3 °F /  -16.5 °C 1.3 °F /  -17.1 °C 1016.5in /  34418.7hPa Calm     93% 0.0in /  0mm WeatherDisplay:10.37 W/m2 FEW
02:02 2.3 °F /  -16.5 °C 1.3 °F /  -17.1 °C 1016.5in /  34418.7hPa Calm   3.7mph /  6km/h 93% 0.0in /  0mm WeatherDisplay:10.37 W/m2 FEW
02:07 2.3 °F /  -16.5 °C 1.3 °F /  -17.1 °C 1016.5in /  34418.7hPa Calm     93% 0.0in /  0mm WeatherDisplay:10.37 W/m2 FEW
02:12 2.3 °F /  -16.5 °C 1.3 °F /  -17.1 °C 1016.5in /  34418.7hPa SSW 2.1mph /  3.4km/h 3.7mph /  6km/h 93% 0.0in /  0mm WeatherDisplay:10.37 W/m2 FEW
02:17 2.3 °F /  -16.5 °C 1.3 °F /  -17.1 °C 1016.5in /  34418.7hPa Calm     93% 0.0in /  0mm WeatherDisplay:10.37 W/m2 FEW
02:22 2.2 °F /  -16.6 °C 1.2 °F /  -17.1 °C 1016.5in /  34418.7hPa Calm     93% 0.0in /  0mm WeatherDisplay:10.37 W/m2 FEW
02:27 2.2 °F /  -16.6 °C 1.2 °F /  -17.1 °C 1016.5in /  34418.7hPa Calm     93% 0.0in /  0mm WeatherDisplay:10.37 W/m2 FEW
02:32 2.2 °F /  -16.6 °C 1.3 °F /  -17.1 °C 1016.5in /  34418.7hPa Calm     94% 0.0in /  0mm WeatherDisplay:10.37 W/m2 FEW
02:37 2.1 °F /  -16.6 °C 1.1 °F /  -17.2 °C 1016.5in /  34418.7hPa Calm     93% 0.0in /  0mm WeatherDisplay:10.37 W/m2 FEW
02:42 2.1 °F /  -16.6 °C 1.1 °F /  -17.2 °C 1016.5in /  34418.7hPa Calm     93% 0.0in /  0mm WeatherDisplay:10.37 W/m2 FEW
02:47 2.1 °F /  -16.6 °C 1.1 °F /  -17.2 °C 1016.5in /  34418.7hPa Calm     93% 0.0in /  0mm WeatherDisplay:10.37 W/m2 FEW
02:52 2.0 °F /  -16.7 °C 1.0 °F /  -17.2 °C 1016.5in /  34418.7hPa Calm     93% 0.0in /  0mm WeatherDisplay:10.37 W/m2 FEW
02:57 2.0 °F /  -16.7 °C 1.0 °F /  -17.2 °C 1016.5in /  34418.7hPa Calm     93% 0.0in /  0mm WeatherDisplay:10.37 W/m2 FEW
03:02 2.0 °F /  -16.7 °C 1.0 °F /  -17.2 °C 1016.5in /  34418.7hPa SSW 0.6mph /  1km/h 3.2mph /  5.1km/h 93% 0.0in /  0mm WeatherDisplay:10.37 W/m2 FEW
03:07 2.0 °F /  -16.7 °C 1.0 °F /  -17.2 °C 1016.8in /  34428.8hPa Calm     93% 0.0in /  0mm WeatherDisplay:10.37 W/m2 FEW
03:12 2.1 °F /  -16.6 °C 1.1 °F /  -17.2 °C 1016.5in /  34418.7hPa Calm     93% 0.0in /  0mm WeatherDisplay:10.37 W/m2 FEW
03:17 2.1 °F /  -16.6 °C 1.1 °F /  -17.2 °C 1016.5in /  34418.7hPa Calm     93% 0.0in /  0mm WeatherDisplay:10.37 W/m2 FEW
03:22 2.0 °F /  -16.7 °C 1.0 °F /  -17.2 °C 1016.5in /  34418.7hPa Calm     93% 0.0in /  0mm WeatherDisplay:10.37 W/m2 FEW
03:27 2.0 °F /  -16.7 °C 1.0 °F /  -17.2 °C 1016.5in /  34418.7hPa Calm   5.6mph /  9km/h 93% 0.0in /  0mm WeatherDisplay:10.37 W/m2 FEW
03:32 2.1 °F /  -16.6 °C 1.1 °F /  -17.2 °C 1016.5in /  34418.7hPa Calm     93% 0.0in /  0mm WeatherDisplay:10.37 W/m2 FEW
03:37 2.1 °F /  -16.6 °C 1.1 °F /  -17.2 °C 1016.5in /  34418.7hPa Calm     93% 0.0in /  0mm WeatherDisplay:10.37 W/m2 FEW
03:42 2.1 °F /  -16.6 °C 1.1 °F /  -17.2 °C 1016.5in /  34418.7hPa Calm     93% 0.0in /  0mm WeatherDisplay:10.37 W/m2 FEW
03:47 2.0 °F /  -16.7 °C 1.0 °F /  -17.2 °C 1016.8in /  34428.8hPa Calm     93% 0.0in /  0mm WeatherDisplay:10.37 W/m2 FEW
03:52 2.0 °F /  -16.7 °C 1.0 °F /  -17.2 °C 1016.8in /  34428.8hPa Calm     93% 0.0in /  0mm WeatherDisplay:10.37 W/m2 FEW
03:57 2.1 °F /  -16.6 °C 1.1 °F /  -17.2 °C 1016.8in /  34428.8hPa Calm     93% 0.0in /  0mm WeatherDisplay:10.37 W/m2 FEW
04:02 2.1 °F /  -16.6 °C 1.1 °F /  -17.2 °C 1016.8in /  34428.8hPa Calm     93% 0.0in /  0mm WeatherDisplay:10.37 W/m2 FEW
04:07 2.1 °F /  -16.6 °C 1.1 °F /  -17.2 °C 1016.8in /  34428.8hPa Calm     93% 0.0in /  0mm WeatherDisplay:10.37 W/m2 FEW
04:12 2.1 °F /  -16.6 °C 1.1 °F /  -17.2 °C 1016.8in /  34428.8hPa Calm     93% 0.0in /  0mm WeatherDisplay:10.37 W/m2 FEW
04:17 2.1 °F /  -16.6 °C 1.1 °F /  -17.2 °C 1016.8in /  34428.8hPa South 0.2mph /  0.3km/h 5.6mph /  9km/h 93% 0.0in /  0mm WeatherDisplay:10.37 W/m2 FEW
04:22 2.2 °F /  -16.6 °C 1.2 °F /  -17.1 °C 1016.8in /  34428.8hPa Calm     93% 0.0in /  0mm WeatherDisplay:10.37 W/m2 FEW
04:27 2.2 °F /  -16.6 °C 1.3 °F /  -17.1 °C 1016.8in /  34428.8hPa Calm     94% 0.0in /  0mm WeatherDisplay:10.37 W/m2 FEW
04:32 2.2 °F /  -16.6 °C 1.3 °F /  -17.1 °C 1016.5in /  34418.7hPa South 0.6mph /  1km/h 3.7mph /  6km/h 94% 0.0in /  0mm WeatherDisplay:10.37 W/m2 FEW
04:37 2.2 °F /  -16.6 °C 1.3 °F /  -17.1 °C 1016.5in /  34418.7hPa Calm     94% 0.0in /  0mm WeatherDisplay:10.37 W/m2 FEW
04:42 2.2 °F /  -16.6 °C 1.3 °F /  -17.1 °C 1016.5in /  34418.7hPa Calm   1.9mph /  3.1km/h 94% 0.0in /  0mm WeatherDisplay:10.37 W/m2 FEW
04:47 2.2 °F /  -16.6 °C 1.3 °F /  -17.1 °C 1016.5in /  34418.7hPa Calm     94% 0.0in /  0mm WeatherDisplay:10.37 W/m2 FEW
04:52 2.2 °F /  -16.6 °C 1.3 °F /  -17.1 °C 1016.5in /  34418.7hPa Calm     94% 0.0in /  0mm WeatherDisplay:10.37 W/m2 FEW
04:57 2.2 °F /  -16.6 °C 1.3 °F /  -17.1 °C 1016.5in /  34418.7hPa Calm     94% 0.0in /  0mm WeatherDisplay:10.37 W/m2 FEW
05:02 2.3 °F /  -16.5 °C 1.4 °F /  -17 °C 1016.5in /  34418.7hPa South 0.2mph /  0.3km/h   94% 0.0in /  0mm WeatherDisplay:10.37 W/m2 FEW
05:07 2.3 °F /  -16.5 °C 1.4 °F /  -17 °C 1016.5in /  34418.7hPa Calm     94% 0.0in /  0mm WeatherDisplay:10.37 W/m2 FEW
05:12 2.3 °F /  -16.5 °C 1.4 °F /  -17 °C 1016.5in /  34418.7hPa South 1.8mph /  2.9km/h 5.6mph /  9km/h 94% 0.0in /  0mm WeatherDisplay:10.37 W/m2 FEW
05:17 2.3 °F /  -16.5 °C 1.4 °F /  -17 °C 1016.5in /  34418.7hPa Calm     94% 0.0in /  0mm WeatherDisplay:10.37 W/m2 FEW
05:22 2.3 °F /  -16.5 °C 1.4 °F /  -17 °C 1016.5in /  34418.7hPa Calm     94% 0.0in /  0mm WeatherDisplay:10.37 W/m2 FEW
05:27 2.3 °F /  -16.5 °C 1.4 °F /  -17 °C 1016.5in /  34418.7hPa Calm     94% 0.0in /  0mm WeatherDisplay:10.37 W/m2 FEW
05:32 2.2 °F /  -16.6 °C 1.3 °F /  -17.1 °C 1016.5in /  34418.7hPa Calm     94% 0.0in /  0mm WeatherDisplay:10.37 W/m2 FEW
05:37 2.3 °F /  -16.5 °C 1.4 °F /  -17 °C 1016.5in /  34418.7hPa Calm   5.6mph /  9km/h 94% 0.0in /  0mm WeatherDisplay:10.37 W/m2 FEW
05:42 2.3 °F /  -16.5 °C 1.4 °F /  -17 °C 1016.5in /  34418.7hPa Calm   1.9mph /  3.1km/h 94% 0.0in /  0mm WeatherDisplay:10.37 W/m2 FEW
05:47 2.2 °F /  -16.6 °C 1.3 °F /  -17.1 °C 1016.5in /  34418.7hPa Calm     94% 0.0in /  0mm WeatherDisplay:10.37 W/m2 FEW
05:52 2.2 °F /  -16.6 °C 1.3 °F /  -17.1 °C 1016.8in /  34428.8hPa Calm     94% 0.0in /  0mm WeatherDisplay:10.37 W/m2 FEW
05:57 2.3 °F /  -16.5 °C 1.4 °F /  -17 °C 1016.8in /  34428.8hPa Calm     94% 0.0in /  0mm WeatherDisplay:10.37 W/m2 FEW
06:02 2.3 °F /  -16.5 °C 1.4 °F /  -17 °C 1016.8in /  34428.8hPa Calm     94% 0.0in /  0mm WeatherDisplay:10.37 W/m2 FEW
06:07 2.3 °F /  -16.5 °C 1.4 °F /  -17 °C 1016.8in /  34428.8hPa Calm     94% 0.0in /  0mm WeatherDisplay:10.37 W/m2 FEW
06:12 2.3 °F /  -16.5 °C 1.4 °F /  -17 °C 1016.8in /  34428.8hPa SSW 0.6mph /  1km/h 3.7mph /  6km/h 94% 0.0in /  0mm WeatherDisplay:10.37 W/m2 FEW
06:17 2.3 °F /  -16.5 °C 1.4 °F /  -17 °C 1016.8in /  34428.8hPa Calm   1.9mph /  3.1km/h 94% 0.0in /  0mm WeatherDisplay:10.37 W/m2 FEW
06:22 2.3 °F /  -16.5 °C 1.4 °F /  -17 °C 1016.8in /  34428.8hPa Calm     94% 0.0in /  0mm WeatherDisplay:10.37 W/m2 FEW
06:27 2.3 °F /  -16.5 °C 1.4 °F /  -17 °C 1016.8in /  34428.8hPa Calm     94% 0.0in /  0mm WeatherDisplay:10.37 W/m2 FEW
06:32 2.3 °F /  -16.5 °C 1.4 °F /  -17 °C 1016.8in /  34428.8hPa Calm     94% 0.0in /  0mm WeatherDisplay:10.37 W/m2 FEW
06:37 2.3 °F /  -16.5 °C 1.4 °F /  -17 °C 1016.8in /  34428.8hPa Calm     94% 0.0in /  0mm WeatherDisplay:10.37 W/m2 FEW
06:42 2.2 °F /  -16.6 °C 1.3 °F /  -17.1 °C 1016.8in /  34428.8hPa SW 0.6mph /  1km/h 3.2mph /  5.1km/h 94% 0.0in /  0mm WeatherDisplay:10.37 W/m2 FEW
06:47 2.2 °F /  -16.6 °C 1.3 °F /  -17.1 °C 1016.8in /  34428.8hPa Calm     94% 0.0in /  0mm WeatherDisplay:10.37 W/m2 FEW
06:52 2.2 °F /  -16.6 °C 1.3 °F /  -17.1 °C 1016.8in /  34428.8hPa Calm     94% 0.0in /  0mm WeatherDisplay:10.37 W/m2 FEW
06:57 2.2 °F /  -16.6 °C 1.3 °F /  -17.1 °C 1016.8in /  34428.8hPa Calm     94% 0.0in /  0mm WeatherDisplay:10.37 W/m2 FEW
07:02 2.3 °F /  -16.5 °C 1.4 °F /  -17 °C 1016.8in /  34428.8hPa Calm     94% 0.0in /  0mm WeatherDisplay:10.37 W/m2 FEW
07:07 2.2 °F /  -16.6 °C 1.3 °F /  -17.1 °C 1016.8in /  34428.8hPa Calm     94% 0.0in /  0mm WeatherDisplay:10.37 W/m2 FEW
07:12 2.2 °F /  -16.6 °C 1.3 °F /  -17.1 °C 1016.8in /  34428.8hPa Calm     94% 0.0in /  0mm WeatherDisplay:10.37 W/m2 FEW
07:17 2.2 °F /  -16.6 °C 1.3 °F /  -17.1 °C 1016.8in /  34428.8hPa Calm     94% 0.0in /  0mm WeatherDisplay:10.37 W/m2 FEW
07:22 2.1 °F /  -16.6 °C 1.2 °F /  -17.1 °C 1016.8in /  34428.8hPa Calm     94% 0.0in /  0mm WeatherDisplay:10.37 W/m2 FEW
07:27 2.1 °F /  -16.6 °C 1.2 °F /  -17.1 °C 1016.8in /  34428.8hPa Calm     94% 0.0in /  0mm WeatherDisplay:10.37 W/m2 FEW
07:32 2.1 °F /  -16.6 °C 1.2 °F /  -17.1 °C 1016.8in /  34428.8hPa Calm     94% 0.0in /  0mm WeatherDisplay:10.37 W/m2 FEW
07:37 2.1 °F /  -16.6 °C 1.2 °F /  -17.1 °C 1016.8in /  34428.8hPa Calm     94% 0.0in /  0mm WeatherDisplay:10.37 W/m2 FEW
07:42 2.1 °F /  -16.6 °C 1.2 °F /  -17.1 °C 1016.8in /  34428.8hPa Calm     94% 0.0in /  0mm WeatherDisplay:10.37 W/m2 FEW
07:47 2.1 °F /  -16.6 °C 1.2 °F /  -17.1 °C 1016.8in /  34428.8hPa Calm     94% 0.0in /  0mm WeatherDisplay:10.37 W/m2 FEW
07:52 2.1 °F /  -16.6 °C 1.2 °F /  -17.1 °C 1016.8in /  34428.8hPa Calm     94% 0.0in /  0mm WeatherDisplay:10.37 W/m2 FEW
07:57 2.1 °F /  -16.6 °C 1.2 °F /  -17.1 °C 1016.8in /  34428.8hPa Calm     94% 0.0in /  0mm WeatherDisplay:10.37 W/m2 FEW
08:02 2.1 °F /  -16.6 °C 1.2 °F /  -17.1 °C 1016.8in /  34428.8hPa Calm     94% 0.0in /  0mm WeatherDisplay:10.37 W/m2 FEW
08:07 2.1 °F /  -16.6 °C 1.2 °F /  -17.1 °C 1016.8in /  34428.8hPa Calm     94% 0.0in /  0mm WeatherDisplay:10.37 W/m2 FEW
08:12 2.1 °F /  -16.6 °C 1.2 °F /  -17.1 °C 1016.8in /  34428.8hPa Calm     94% 0.0in /  0mm WeatherDisplay:10.37 W/m2 FEW
08:17 2.2 °F /  -16.6 °C 1.3 °F /  -17.1 °C 1016.8in /  34428.8hPa Calm     94% 0.0in /  0mm WeatherDisplay:10.37 W/m2 FEW
08:22 2.2 °F /  -16.6 °C 1.3 °F /  -17.1 °C 1016.8in /  34428.8hPa Calm     94% 0.0in /  0mm WeatherDisplay:10.37 W/m2 FEW
08:27 2.2 °F /  -16.6 °C 1.3 °F /  -17.1 °C 1016.8in /  34428.8hPa Calm     94% 0.0in /  0mm WeatherDisplay:10.37 W/m2 FEW
08:32 2.2 °F /  -16.6 °C 1.3 °F /  -17.1 °C 1016.8in /  34428.8hPa Calm     94% 0.0in /  0mm WeatherDisplay:10.37 W/m2 FEW
08:37 2.2 °F /  -16.6 °C 1.3 °F /  -17.1 °C 1016.8in /  34428.8hPa Calm   5.6mph /  9km/h 94% 0.0in /  0mm WeatherDisplay:10.37 W/m2 FEW
08:42 2.1 °F /  -16.6 °C 1.2 °F /  -17.1 °C 1016.8in /  34428.8hPa Calm     94% 0.0in /  0mm WeatherDisplay:10.37 W/m2 FEW
08:47 2.1 °F /  -16.6 °C 1.2 °F /  -17.1 °C 1016.8in /  34428.8hPa Calm     94% 0.0in /  0mm WeatherDisplay:10.37 W/m2 FEW
08:52 2.1 °F /  -16.6 °C 1.2 °F /  -17.1 °C 1016.8in /  34428.8hPa SSW 1.6mph /  2.6km/h 3.7mph /  6km/h 94% 0.0in /  0mm WeatherDisplay:10.37 W/m2 FEW
08:57 2.1 °F /  -16.6 °C 1.2 °F /  -17.1 °C 1016.8in /  34428.8hPa Calm     94% 0.0in /  0mm WeatherDisplay:10.37 W/m2 FEW
09:02 2.1 °F /  -16.6 °C 1.2 °F /  -17.1 °C 1016.8in /  34428.8hPa SSW 0.8mph /  1.3km/h 1.6mph /  2.6km/h 94% 0.0in /  0mm WeatherDisplay:10.37 W/m2 FEW
09:07 2.1 °F /  -16.6 °C 1.2 °F /  -17.1 °C 1016.8in /  34428.8hPa SSW 1.3mph /  2.1km/h 5.6mph /  9km/h 94% 0.0in /  0mm WeatherDisplay:10.37 W/m2 FEW
09:12 2.1 °F /  -16.6 °C 1.2 °F /  -17.1 °C 1016.8in /  34428.8hPa Calm     94% 0.0in /  0mm WeatherDisplay:10.37 W/m2 FEW
09:17 2.1 °F /  -16.6 °C 1.2 °F /  -17.1 °C 1016.8in /  34428.8hPa Calm     94% 0.0in /  0mm WeatherDisplay:10.37 W/m2 FEW
09:22 2.1 °F /  -16.6 °C 1.2 °F /  -17.1 °C 1016.8in /  34428.8hPa Calm     94% 0.0in /  0mm WeatherDisplay:10.37 W/m2 FEW
09:27 2.1 °F /  -16.6 °C 1.2 °F /  -17.1 °C 1016.8in /  34428.8hPa Calm     94% 0.0in /  0mm WeatherDisplay:10.37 W/m2 FEW
09:32 2.2 °F /  -16.6 °C 1.3 °F /  -17.1 °C 1016.8in /  34428.8hPa SSW 0.8mph /  1.3km/h 3.7mph /  6km/h 94% 0.0in /  0mm WeatherDisplay:10.37 W/m2 FEW
09:37 2.2 °F /  -16.6 °C 1.3 °F /  -17.1 °C 1016.8in /  34428.8hPa Calm     94% 0.0in /  0mm WeatherDisplay:10.37 W/m2 FEW
09:42 2.2 °F /  -16.6 °C 1.3 °F /  -17.1 °C 1016.8in /  34428.8hPa Calm     94% 0.0in /  0mm WeatherDisplay:10.37 W/m2 FEW
09:47 2.2 °F /  -16.6 °C 1.3 °F /  -17.1 °C 1016.8in /  34428.8hPa Calm     94% 0.0in /  0mm WeatherDisplay:10.37 W/m2 FEW
09:52 2.2 °F /  -16.6 °C 1.3 °F /  -17.1 °C 1017.2in /  34442.4hPa Calm     94% 0.0in /  0mm WeatherDisplay:10.37 W/m2 FEW
09:57 2.2 °F /  -16.6 °C 1.3 °F /  -17.1 °C 1017.2in /  34442.4hPa Calm     94% 0.0in /  0mm WeatherDisplay:10.37 W/m2 FEW
10:02 2.2 °F /  -16.6 °C 1.3 °F /  -17.1 °C 1017.2in /  34442.4hPa Calm     94% 0.0in /  0mm WeatherDisplay:10.37 W/m2 FEW
10:07 2.2 °F /  -16.6 °C 1.3 °F /  -17.1 °C 1017.2in /  34442.4hPa Calm     94% 0.0in /  0mm WeatherDisplay:10.37 W/m2 FEW
10:12 2.2 °F /  -16.6 °C 1.3 °F /  -17.1 °C 1017.2in /  34442.4hPa Calm     94% 0.0in /  0mm WeatherDisplay:10.37 W/m2 FEW
10:17 2.2 °F /  -16.6 °C 1.3 °F /  -17.1 °C 1017.2in /  34442.4hPa Calm     94% 0.0in /  0mm WeatherDisplay:10.37 W/m2 FEW
10:22 2.2 °F /  -16.6 °C 1.3 °F /  -17.1 °C 1017.2in /  34442.4hPa Calm     94% 0.0in /  0mm WeatherDisplay:10.37 W/m2 FEW
10:27 2.2 °F /  -16.6 °C 1.3 °F /  -17.1 °C 1017.2in /  34442.4hPa Calm     94% 0.0in /  0mm WeatherDisplay:10.37 W/m2 FEW
10:32 2.2 °F /  -16.6 °C 1.3 °F /  -17.1 °C 1017.2in /  34442.4hPa Calm     94% 0.0in /  0mm WeatherDisplay:10.37 W/m2 FEW
10:37 2.2 °F /  -16.6 °C 1.3 °F /  -17.1 °C 1017.2in /  34442.4hPa Calm     94% 0.0in /  0mm WeatherDisplay:10.37 W/m2 FEW
10:42 2.2 °F /  -16.6 °C 1.3 °F /  -17.1 °C 1016.8in /  34428.8hPa SSW 0.6mph /  1km/h 5.6mph /  9km/h 94% 0.0in /  0mm WeatherDisplay:10.37 W/m2 FEW
10:47 2.2 °F /  -16.6 °C 1.3 °F /  -17.1 °C 1017.2in /  34442.4hPa Calm     94% 0.0in /  0mm WeatherDisplay:10.37 W/m2 FEW
10:52 2.2 °F /  -16.6 °C 1.3 °F /  -17.1 °C 1017.2in /  34442.4hPa Calm     94% 0.0in /  0mm WeatherDisplay:10.37 W/m2 FEW
10:57 2.2 °F /  -16.6 °C 1.3 °F /  -17.1 °C 1017.2in /  34442.4hPa SSW 0.6mph /  1km/h   94% 0.0in /  0mm WeatherDisplay:10.37 W/m2 FEW
11:02 2.3 °F /  -16.5 °C 1.4 °F /  -17 °C 1016.8in /  34428.8hPa Calm     94% 0.0in /  0mm WeatherDisplay:10.37 W/m2 FEW
11:08 2.3 °F /  -16.5 °C 1.4 °F /  -17 °C 1016.8in /  34428.8hPa Calm     94% 0.0in /  0mm WeatherDisplay:10.37 W/m2 FEW
11:13 2.2 °F /  -16.6 °C 1.3 °F /  -17.1 °C 1016.8in /  34428.8hPa Calm     94% 0.0in /  0mm WeatherDisplay:10.37 W/m2 FEW
11:18 2.2 °F /  -16.6 °C 1.3 °F /  -17.1 °C 1016.8in /  34428.8hPa Calm     94% 0.0in /  0mm WeatherDisplay:10.37 W/m2 FEW
11:23 2.2 °F /  -16.6 °C 1.3 °F /  -17.1 °C 1016.8in /  34428.8hPa Calm     94% 0.0in /  0mm WeatherDisplay:10.37 W/m2 FEW
11:28 2.2 °F /  -16.6 °C 1.3 °F /  -17.1 °C 1016.8in /  34428.8hPa South 1.0mph /  1.6km/h 5.6mph /  9km/h 94% 0.0in /  0mm WeatherDisplay:10.37 W/m2 FEW
11:33 2.2 °F /  -16.6 °C 1.3 °F /  -17.1 °C 1016.8in /  34428.8hPa Calm     94% 0.0in /  0mm WeatherDisplay:10.37 W/m2 FEW
11:38 2.2 °F /  -16.6 °C 1.3 °F /  -17.1 °C 1016.8in /  34428.8hPa SSE 1.1mph /  1.8km/h 5.6mph /  9km/h 94% 0.0in /  0mm WeatherDisplay:10.37 W/m2 FEW
11:43 2.3 °F /  -16.5 °C 1.4 °F /  -17 °C 1016.5in /  34418.7hPa Calm   3.7mph /  6km/h 94% 0.0in /  0mm WeatherDisplay:10.37 W/m2 FEW
11:48 2.3 °F /  -16.5 °C 1.4 °F /  -17 °C 1016.5in /  34418.7hPa SSW 2.4mph /  3.9km/h 3.7mph /  6km/h 94% 0.0in /  0mm WeatherDisplay:10.37 W/m2 FEW
11:53 2.3 °F /  -16.5 °C 1.4 °F /  -17 °C 1016.5in /  34418.7hPa SSE 0.3mph /  0.5km/h 3.7mph /  6km/h 94% 0.0in /  0mm WeatherDisplay:10.37 W/m2 FEW
11:58 2.3 °F /  -16.5 °C 1.4 °F /  -17 °C 1016.5in /  34418.7hPa Calm     94% 0.0in /  0mm WeatherDisplay:10.37 W/m2 FEW
12:03 2.3 °F /  -16.5 °C 1.4 °F /  -17 °C 1016.5in /  34418.7hPa Calm   7.4mph /  11.9km/h 94% 0.0in /  0mm WeatherDisplay:10.37 W/m2 FEW
12:08 2.2 °F /  -16.6 °C 1.3 °F /  -17.1 °C 1016.5in /  34418.7hPa Calm     94% 0.0in /  0mm WeatherDisplay:10.37 W/m2 FEW
12:13 2.3 °F /  -16.5 °C 1.4 °F /  -17 °C 1016.5in /  34418.7hPa Calm     94% 0.0in /  0mm WeatherDisplay:10.37 W/m2 FEW
12:18 2.2 °F /  -16.6 °C 1.3 °F /  -17.1 °C 1016.5in /  34418.7hPa South 1.3mph /  2.1km/h 3.2mph /  5.1km/h 94% 0.0in /  0mm WeatherDisplay:10.37 W/m2 FEW
12:23 2.2 °F /  -16.6 °C 1.3 °F /  -17.1 °C 1016.5in /  34418.7hPa Calm     94% 0.0in /  0mm WeatherDisplay:10.37 W/m2 FEW
12:28 2.2 °F /  -16.6 °C 1.3 °F /  -17.1 °C 1016.5in /  34418.7hPa Calm     94% 0.0in /  0mm WeatherDisplay:10.37 W/m2 FEW
12:33 2.3 °F /  -16.5 °C 1.4 °F /  -17 °C 1016.1in /  34405.1hPa Calm     94% 0.0in /  0mm WeatherDisplay:10.37 W/m2 FEW
12:38 2.2 °F /  -16.6 °C 1.3 °F /  -17.1 °C 1016.1in /  34405.1hPa South 0.5mph /  0.8km/h 1.9mph /  3.1km/h 94% 0.0in /  0mm WeatherDisplay:10.37 W/m2 FEW
12:43 2.2 °F /  -16.6 °C 1.3 °F /  -17.1 °C 1016.1in /  34405.1hPa South 1.4mph /  2.3km/h 5.6mph /  9km/h 94% 0.0in /  0mm WeatherDisplay:10.37 W/m2 FEW
12:48 2.2 °F /  -16.6 °C 1.3 °F /  -17.1 °C 1016.1in /  34405.1hPa SSE 2.1mph /  3.4km/h 3.2mph /  5.1km/h 94% 0.3in /  7.62mm WeatherDisplay:10.37 W/m2 RA
12:53 2.2 °F /  -16.6 °C 1.3 °F /  -17.1 °C 1016.1in /  34405.1hPa SSE 1.0mph /  1.6km/h 5.6mph /  9km/h 94% 0.5in /  12.7mm WeatherDisplay:10.37 W/m2 RA
12:58 2.1 °F /  -16.6 °C 1.2 °F /  -17.1 °C 1016.1in /  34405.1hPa South 2.3mph /  3.7km/h 11.1mph /  17.9km/h 94% 0.5in /  12.7mm WeatherDisplay:10.37 W/m2 RA
13:03 2.0 °F /  -16.7 °C 1.1 °F /  -17.2 °C 1016.1in /  34405.1hPa Calm   3.7mph /  6km/h 94% 0.5in /  12.7mm WeatherDisplay:10.37 W/m2 FEW
13:08 1.9 °F /  -16.7 °C 1.1 °F /  -17.2 °C 1016.1in /  34405.1hPa South 1.3mph /  2.1km/h 5.6mph /  9km/h 94% 0.5in /  12.7mm WeatherDisplay:10.37 W/m2 FEW
13:13 1.9 °F /  -16.7 °C 1.1 °F /  -17.2 °C 1015.8in /  34395hPa Calm   3.7mph /  6km/h 94% 0.5in /  12.7mm WeatherDisplay:10.37 W/m2 FEW
13:18 1.9 °F /  -16.7 °C 1.1 °F /  -17.2 °C 1015.8in /  34395hPa SE 0.5mph /  0.8km/h 4.8mph /  7.7km/h 94% 0.5in /  12.7mm WeatherDisplay:10.37 W/m2 FEW
13:23 1.8 °F /  -16.8 °C 0.9 °F /  -17.3 °C 1015.8in /  34395hPa Calm     94% 0.8in /  20.32mm WeatherDisplay:10.37 W/m2 RA
13:28 1.8 °F /  -16.8 °C 0.9 °F /  -17.3 °C 1015.8in /  34395hPa Calm   1.9mph /  3.1km/h 94% 0.8in /  20.32mm WeatherDisplay:10.37 W/m2 RA
13:33 1.8 °F /  -16.8 °C 0.9 °F /  -17.3 °C 1015.8in /  34395hPa Calm     94% 0.8in /  20.32mm WeatherDisplay:10.37 W/m2 FEW
13:38 1.9 °F /  -16.7 °C 1.0 °F /  -17.2 °C 1015.8in /  34395hPa Calm     94% 0.8in /  20.32mm WeatherDisplay:10.37 W/m2 FEW
13:43 1.9 °F /  -16.7 °C 1.1 °F /  -17.2 °C 1015.8in /  34395hPa Calm     94% 0.8in /  20.32mm WeatherDisplay:10.37 W/m2 FEW
13:48 2.1 °F /  -16.6 °C 1.2 °F /  -17.1 °C 1015.8in /  34395hPa ESE 0.8mph /  1.3km/h 5.6mph /  9km/h 94% 0.5in /  12.7mm WeatherDisplay:10.37 W/m2 FEW
13:53 2.1 °F /  -16.6 °C 1.2 °F /  -17.1 °C 1015.8in /  34395hPa SSW 4.0mph /  6.4km/h 13.0mph /  20.9km/h 94% 0.5in /  12.7mm WeatherDisplay:10.37 W/m2 FEW
13:58 2.2 °F /  -16.6 °C 1.3 °F /  -17.1 °C 1015.8in /  34395hPa SE 2.9mph /  4.7km/h 6.4mph /  10.3km/h 94% 0.5in /  12.7mm WeatherDisplay:10.37 W/m2 FEW
14:03 2.2 °F /  -16.6 °C 1.3 °F /  -17.1 °C 1015.8in /  34395hPa Calm     94% 0.5in /  12.7mm WeatherDisplay:10.37 W/m2 FEW
14:08 2.3 °F /  -16.5 °C 1.4 °F /  -17 °C 1015.8in /  34395hPa South 0.8mph /  1.3km/h 11.1mph /  17.9km/h 94% 0.5in /  12.7mm WeatherDisplay:10.37 W/m2 FEW
14:13 2.3 °F /  -16.5 °C 1.4 °F /  -17 °C 1015.8in /  34395hPa SSW 2.4mph /  3.9km/h 11.1mph /  17.9km/h 94% 0.5in /  12.7mm WeatherDisplay:10.37 W/m2 FEW
14:18 2.3 °F /  -16.5 °C 1.4 °F /  -17 °C 1015.5in /  34384.8hPa South 0.5mph /  0.8km/h 11.1mph /  17.9km/h 94% 0.5in /  12.7mm WeatherDisplay:10.37 W/m2 FEW
14:23 2.3 °F /  -16.5 °C 1.4 °F /  -17 °C 1015.5in /  34384.8hPa South 0.5mph /  0.8km/h 5.6mph /  9km/h 94% 0.0in /  0mm WeatherDisplay:10.37 W/m2 FEW
14:28 2.2 °F /  -16.6 °C 1.3 °F /  -17.1 °C 1015.8in /  34395hPa Calm   1.9mph /  3.1km/h 94% 0.3in /  7.62mm WeatherDisplay:10.37 W/m2 RA
14:33 2.1 °F /  -16.6 °C 1.2 °F /  -17.1 °C 1015.8in /  34395hPa SSW 0.3mph /  0.5km/h 4.8mph /  7.7km/h 94% 0.5in /  12.7mm WeatherDisplay:10.37 W/m2 RA
14:38 1.8 °F /  -16.8 °C 0.9 °F /  -17.3 °C 1015.8in /  34395hPa SW 1.6mph /  2.6km/h 11.1mph /  17.9km/h 94% 0.5in /  12.7mm WeatherDisplay:10.37 W/m2 RA
14:43 1.4 °F /  -17 °C 0.6 °F /  -17.4 °C 1015.8in /  34395hPa SSE 0.5mph /  0.8km/h   94% 0.5in /  12.7mm WeatherDisplay:10.37 W/m2 RA
14:48 1.2 °F /  -17.1 °C 0.3 °F /  -17.6 °C 1015.8in /  34395hPa Calm     94% 0.5in /  12.7mm WeatherDisplay:10.37 W/m2 FEW
14:53 1.0 °F /  -17.2 °C 0.2 °F /  -17.7 °C 1015.5in /  34384.8hPa SE 1.9mph /  3.1km/h 7.4mph /  11.9km/h 94% 0.5in /  12.7mm WeatherDisplay:10.37 W/m2 FEW
14:58 0.8 °F /  -17.3 °C 0.0 °F /  -17.8 °C 1015.5in /  34384.8hPa SSE 3.5mph /  5.6km/h 11.1mph /  17.9km/h 94% 0.5in /  12.7mm WeatherDisplay:10.37 W/m2 FEW
15:03 0.8 °F /  -17.3 °C -0.1 °F /  -17.8 °C 1015.5in /  34384.8hPa SSW 0.8mph /  1.3km/h 5.6mph /  9km/h 94% 0.5in /  12.7mm WeatherDisplay:10.37 W/m2 FEW
15:08 0.8 °F /  -17.3 °C -0.1 °F /  -17.8 °C 1015.5in /  34384.8hPa South 1.0mph /  1.6km/h 3.7mph /  6km/h 94% 0.5in /  12.7mm WeatherDisplay:10.37 W/m2 FEW
15:13 0.7 °F /  -17.4 °C -0.1 °F /  -17.8 °C 1015.5in /  34384.8hPa Calm     94% 0.5in /  12.7mm WeatherDisplay:10.37 W/m2 FEW
15:18 0.7 °F /  -17.4 °C -0.1 °F /  -17.8 °C 1015.5in /  34384.8hPa Calm     94% 0.5in /  12.7mm WeatherDisplay:10.37 W/m2 FEW
15:23 0.7 °F /  -17.4 °C -0.2 °F /  -17.9 °C 1015.5in /  34384.8hPa SSE 0.6mph /  1km/h   94% 0.5in /  12.7mm WeatherDisplay:10.37 W/m2 FEW
15:28 0.7 °F /  -17.4 °C -0.2 °F /  -17.9 °C 1015.5in /  34384.8hPa Calm     94% 0.5in /  12.7mm WeatherDisplay:10.37 W/m2 FEW
15:33 0.7 °F /  -17.4 °C -0.2 °F /  -17.9 °C 1015.5in /  34384.8hPa SSE 0.2mph /  0.3km/h 1.9mph /  3.1km/h 94% 0.3in /  7.62mm WeatherDisplay:10.37 W/m2 FEW
15:38 0.7 °F /  -17.4 °C -0.1 °F /  -17.8 °C 1015.5in /  34384.8hPa Calm     94% 0.0in /  0mm WeatherDisplay:10.37 W/m2 FEW
15:43 0.7 °F /  -17.4 °C -0.1 °F /  -17.8 °C 1015.5in /  34384.8hPa Calm     94% 0.0in /  0mm WeatherDisplay:10.37 W/m2 FEW
15:48 0.8 °F /  -17.3 °C -0.1 °F /  -17.8 °C 1015.5in /  34384.8hPa Calm     94% 0.0in /  0mm WeatherDisplay:10.37 W/m2 FEW
15:53 0.8 °F /  -17.3 °C -0.1 °F /  -17.8 °C 1015.5in /  34384.8hPa Calm     94% 0.0in /  0mm WeatherDisplay:10.37 W/m2 FEW
15:58 0.8 °F /  -17.3 °C 0.0 °F /  -17.8 °C 1015.5in /  34384.8hPa Calm     94% 0.3in /  7.62mm WeatherDisplay:10.37 W/m2 RA
16:03 0.9 °F /  -17.3 °C 0.1 °F /  -17.7 °C 1015.5in /  34384.8hPa SSE 0.3mph /  0.5km/h 3.7mph /  6km/h 94% 0.3in /  7.62mm WeatherDisplay:10.37 W/m2 RA
16:08 0.9 °F /  -17.3 °C 0.1 °F /  -17.7 °C 1015.1in /  34371.3hPa Calm     94% 0.3in /  7.62mm WeatherDisplay:10.37 W/m2 FEW
16:13 1.0 °F /  -17.2 °C 0.2 °F /  -17.7 °C 1015.1in /  34371.3hPa SSE 1.4mph /  2.3km/h 3.7mph /  6km/h 94% 0.3in /  7.62mm WeatherDisplay:10.37 W/m2 FEW
16:18 1.1 °F /  -17.2 °C 0.3 °F /  -17.6 °C 1015.1in /  34371.3hPa Calm     94% 0.3in /  7.62mm WeatherDisplay:10.37 W/m2 FEW
16:23 1.1 °F /  -17.2 °C 0.3 °F /  -17.6 °C 1015.1in /  34371.3hPa Calm     94% 0.3in /  7.62mm WeatherDisplay:10.37 W/m2 FEW
16:28 1.1 °F /  -17.2 °C 0.2 °F /  -17.7 °C 1015.1in /  34371.3hPa Calm     94% 0.5in /  12.7mm WeatherDisplay:10.37 W/m2 RA
16:33 1.1 °F /  -17.2 °C 0.2 °F /  -17.7 °C 1015.1in /  34371.3hPa Calm     94% 0.5in /  12.7mm WeatherDisplay:10.37 W/m2 RA
16:38 1.1 °F /  -17.2 °C 0.2 °F /  -17.7 °C 1015.1in /  34371.3hPa Calm   3.7mph /  6km/h 94% 0.5in /  12.7mm WeatherDisplay:10.37 W/m2 FEW
16:43 1.1 °F /  -17.2 °C 0.2 °F /  -17.7 °C 1015.1in /  34371.3hPa Calm     94% 0.5in /  12.7mm WeatherDisplay:10.37 W/m2 FEW
16:48 1.1 °F /  -17.2 °C 0.2 °F /  -17.7 °C 1015.1in /  34371.3hPa South 3.1mph /  5km/h 8.0mph /  12.9km/h 94% 0.5in /  12.7mm WeatherDisplay:10.37 W/m2 FEW
16:53 1.1 °F /  -17.2 °C 0.3 °F /  -17.6 °C 1015.1in /  34371.3hPa Calm     94% 0.5in /  12.7mm WeatherDisplay:10.37 W/m2 FEW
16:58 1.2 °F /  -17.1 °C 0.4 °F /  -17.6 °C 1015.1in /  34371.3hPa Calm   7.4mph /  11.9km/h 94% 0.5in /  12.7mm WeatherDisplay:10.37 W/m2 RA
17:03 1.2 °F /  -17.1 °C 0.4 °F /  -17.6 °C 1015.1in /  34371.3hPa SSE 0.2mph /  0.3km/h 1.9mph /  3.1km/h 94% 0.5in /  12.7mm WeatherDisplay:10.37 W/m2 RA
17:08 1.3 °F /  -17.1 °C 0.4 °F /  -17.6 °C 1015.1in /  34371.3hPa Calm     94% 0.8in /  20.32mm WeatherDisplay:10.37 W/m2 RA
17:13 1.3 °F /  -17.1 °C 0.4 °F /  -17.6 °C 1015.1in /  34371.3hPa Calm     94% 1.0in /  25.4mm WeatherDisplay:10.37 W/m2 RA
17:18 1.3 °F /  -17.1 °C 0.4 °F /  -17.6 °C 1015.1in /  34371.3hPa Calm     94% 1.0in /  25.4mm WeatherDisplay:10.37 W/m2 RA
17:23 1.3 °F /  -17.1 °C 0.5 °F /  -17.5 °C 1015.1in /  34371.3hPa SSW 1.1mph /  1.8km/h 3.7mph /  6km/h 94% 1.0in /  25.4mm WeatherDisplay:10.37 W/m2 FEW
17:28 1.3 °F /  -17.1 °C 0.5 °F /  -17.5 °C 1015.1in /  34371.3hPa SW 1.9mph /  3.1km/h 5.6mph /  9km/h 94% 0.8in /  20.32mm WeatherDisplay:10.37 W/m2 FEW
17:33 1.4 °F /  -17 °C 0.6 °F /  -17.4 °C 1015.5in /  34384.8hPa WSW 2.3mph /  3.7km/h 5.6mph /  9km/h 94% 0.8in /  20.32mm WeatherDisplay:10.37 W/m2 FEW
17:38 1.3 °F /  -17.1 °C 0.5 °F /  -17.5 °C 1015.5in /  34384.8hPa WNW 1.9mph /  3.1km/h 5.6mph /  9km/h 94% 0.8in /  20.32mm WeatherDisplay:10.37 W/m2 FEW
17:43 1.3 °F /  -17.1 °C 0.5 °F /  -17.5 °C 1015.5in /  34384.8hPa Calm     94% 0.8in /  20.32mm WeatherDisplay:10.37 W/m2 FEW
17:48 1.3 °F /  -17.1 °C 0.4 °F /  -17.6 °C 1015.5in /  34384.8hPa WSW 1.0mph /  1.6km/h 5.6mph /  9km/h 94% 0.8in /  20.32mm WeatherDisplay:10.37 W/m2 FEW
17:53 1.3 °F /  -17.1 °C 0.4 °F /  -17.6 °C 1015.5in /  34384.8hPa Calm     94% 0.8in /  20.32mm WeatherDisplay:10.37 W/m2 FEW
17:58 1.2 °F /  -17.1 °C 0.4 °F /  -17.6 °C 1015.5in /  34384.8hPa Calm     94% 0.5in /  12.7mm WeatherDisplay:10.37 W/m2 FEW
18:03 1.2 °F /  -17.1 °C 0.3 °F /  -17.6 °C 1015.5in /  34384.8hPa West 0.8mph /  1.3km/h 4.8mph /  7.7km/h 94% 0.5in /  12.7mm WeatherDisplay:10.37 W/m2 FEW
18:08 1.2 °F /  -17.1 °C 0.3 °F /  -17.6 °C 1015.5in /  34384.8hPa SSW 0.6mph /  1km/h 5.6mph /  9km/h 94% 0.3in /  7.62mm WeatherDisplay:10.37 W/m2 FEW
18:13 1.2 °F /  -17.1 °C 0.3 °F /  -17.6 °C 1015.5in /  34384.8hPa SW 0.3mph /  0.5km/h 5.6mph /  9km/h 94% 0.0in /  0mm WeatherDisplay:10.37 W/m2 FEW
18:18 1.1 °F /  -17.2 °C 0.3 °F /  -17.6 °C 1015.5in /  34384.8hPa West 1.4mph /  2.3km/h 5.6mph /  9km/h 94% 0.0in /  0mm WeatherDisplay:10.37 W/m2 FEW
18:23 1.1 °F /  -17.2 °C 0.2 °F /  -17.7 °C 1015.5in /  34384.8hPa Calm     94% 0.0in /  0mm WeatherDisplay:10.37 W/m2 FEW
18:28 1.1 °F /  -17.2 °C 0.2 °F /  -17.7 °C 1015.5in /  34384.8hPa Calm   5.6mph /  9km/h 94% 0.0in /  0mm WeatherDisplay:10.37 W/m2 FEW
18:31 1.0 °F /  -17.2 °C 0.2 °F /  -17.7 °C 1015.5in /  34384.8hPa Calm     94% 0.0in /  0mm WeatherDisplay:10.37 W/m2 FEW
18:36 1.0 °F /  -17.2 °C 0.2 °F /  -17.7 °C 1015.8in /  34395hPa Calm     94% 0.0in /  0mm WeatherDisplay:10.37 W/m2 FEW
18:41 1.0 °F /  -17.2 °C 0.2 °F /  -17.7 °C 1015.5in /  34384.8hPa Calm   3.7mph /  6km/h 94% 0.0in /  0mm WeatherDisplay:10.37 W/m2 FEW
18:46 0.9 °F /  -17.3 °C 0.1 °F /  -17.7 °C 1015.5in /  34384.8hPa SW 0.8mph /  1.3km/h 5.6mph /  9km/h 94% 0.0in /  0mm WeatherDisplay:10.37 W/m2 FEW
18:51 0.9 °F /  -17.3 °C 0.1 °F /  -17.7 °C 1015.5in /  34384.8hPa Calm     94% 0.0in /  0mm WeatherDisplay:10.37 W/m2 FEW
18:56 0.9 °F /  -17.3 °C 0.1 °F /  -17.7 °C 1015.8in /  34395hPa Calm     94% 0.0in /  0mm WeatherDisplay:10.37 W/m2 FEW
19:01 0.9 °F /  -17.3 °C 0.1 °F /  -17.7 °C 1015.8in /  34395hPa Calm   3.7mph /  6km/h 94% 0.0in /  0mm WeatherDisplay:10.37 W/m2 FEW
19:06 0.9 °F /  -17.3 °C 0.1 °F /  -17.7 °C 1015.8in /  34395hPa Calm   3.7mph /  6km/h 94% 0.0in /  0mm WeatherDisplay:10.37 W/m2 FEW
19:11 0.9 °F /  -17.3 °C 0.1 °F /  -17.7 °C 1015.8in /  34395hPa Calm     94% 0.0in /  0mm WeatherDisplay:10.37 W/m2 FEW
19:16 0.9 °F /  -17.3 °C 0.1 °F /  -17.7 °C 1015.8in /  34395hPa Calm   3.7mph /  6km/h 94% 0.0in /  0mm WeatherDisplay:10.37 W/m2 FEW
19:21 0.8 °F /  -17.3 °C 0.0 °F /  -17.8 °C 1015.8in /  34395hPa WSW 1.0mph /  1.6km/h 3.2mph /  5.1km/h 94% 0.0in /  0mm WeatherDisplay:10.37 W/m2 FEW
19:26 0.8 °F /  -17.3 °C 0.0 °F /  -17.8 °C 1015.8in /  34395hPa Calm   1.9mph /  3.1km/h 94% 0.0in /  0mm WeatherDisplay:10.37 W/m2 FEW
19:31 0.8 °F /  -17.3 °C 0.0 °F /  -17.8 °C 1015.8in /  34395hPa Calm   5.6mph /  9km/h 94% 0.0in /  0mm WeatherDisplay:10.37 W/m2 FEW
19:36 0.8 °F /  -17.3 °C -0.1 °F /  -17.8 °C 1015.8in /  34395hPa Calm     94% 0.0in /  0mm WeatherDisplay:10.37 W/m2 FEW
19:41 0.8 °F /  -17.3 °C -0.1 °F /  -17.8 °C 1015.8in /  34395hPa West 2.9mph /  4.7km/h 5.6mph /  9km/h 94% 0.0in /  0mm WeatherDisplay:10.37 W/m2 FEW
19:46 0.8 °F /  -17.3 °C -0.1 °F /  -17.8 °C 1015.8in /  34395hPa Calm     94% 0.0in /  0mm WeatherDisplay:10.37 W/m2 FEW
19:51 0.8 °F /  -17.3 °C -0.1 °F /  -17.8 °C 1015.8in /  34395hPa Calm     94% 0.0in /  0mm WeatherDisplay:10.37 W/m2 FEW
19:56 0.7 °F /  -17.4 °C -0.1 °F /  -17.8 °C 1015.8in /  34395hPa Calm   3.7mph /  6km/h 94% 0.0in /  0mm WeatherDisplay:10.37 W/m2 FEW
20:01 0.7 °F /  -17.4 °C -0.1 °F /  -17.8 °C 1015.8in /  34395hPa Calm     94% 0.0in /  0mm WeatherDisplay:10.37 W/m2 FEW
20:06 0.7 °F /  -17.4 °C -0.1 °F /  -17.8 °C 1015.8in /  34395hPa SW 0.2mph /  0.3km/h 1.9mph /  3.1km/h 94% 0.0in /  0mm WeatherDisplay:10.37 W/m2 FEW
20:11 0.7 °F /  -17.4 °C -0.2 °F /  -17.9 °C 1015.8in /  34395hPa WSW 0.3mph /  0.5km/h 1.9mph /  3.1km/h 94% 0.0in /  0mm WeatherDisplay:10.37 W/m2 FEW
20:16 0.6 °F /  -17.4 °C -0.2 °F /  -17.9 °C 1015.8in /  34395hPa Calm     94% 0.0in /  0mm WeatherDisplay:10.37 W/m2 FEW
20:21 0.6 °F /  -17.4 °C -0.3 °F /  -17.9 °C 1015.8in /  34395hPa Calm   3.7mph /  6km/h 94% 0.0in /  0mm WeatherDisplay:10.37 W/m2 FEW
20:26 0.6 °F /  -17.4 °C -0.3 °F /  -17.9 °C 1015.8in /  34395hPa Calm     94% 0.0in /  0mm WeatherDisplay:10.37 W/m2 FEW
20:31 0.6 °F /  -17.4 °C -0.3 °F /  -17.9 °C 1015.8in /  34395hPa Calm     94% 0.0in /  0mm WeatherDisplay:10.37 W/m2 FEW
20:36 0.5 °F /  -17.5 °C -0.3 °F /  -17.9 °C 1015.8in /  34395hPa WNW 1.3mph /  2.1km/h 3.7mph /  6km/h 94% 0.0in /  0mm WeatherDisplay:10.37 W/m2 FEW
20:41 0.4 °F /  -17.6 °C -0.4 °F /  -18 °C 1015.8in /  34395hPa Calm     94% 0.0in /  0mm WeatherDisplay:10.37 W/m2 FEW
20:46 0.4 °F /  -17.6 °C -0.4 °F /  -18 °C 1015.8in /  34395hPa Calm     94% 0.0in /  0mm WeatherDisplay:10.37 W/m2 FEW
20:51 0.4 °F /  -17.6 °C -0.4 °F /  -18 °C 1015.8in /  34395hPa Calm     94% 0.0in /  0mm WeatherDisplay:10.37 W/m2 FEW
20:56 0.4 °F /  -17.6 °C -0.4 °F /  -18 °C 1015.8in /  34395hPa Calm     94% 0.0in /  0mm WeatherDisplay:10.37 W/m2 FEW
21:01 0.4 °F /  -17.6 °C -0.4 °F /  -18 °C 1015.8in /  34395hPa NW 1.0mph /  1.6km/h 3.2mph /  5.1km/h 94% 0.0in /  0mm WeatherDisplay:10.37 W/m2 FEW
21:06 0.3 °F /  -17.6 °C -0.5 °F /  -18.1 °C 1015.8in /  34395hPa WNW 1.0mph /  1.6km/h 3.7mph /  6km/h 94% 0.0in /  0mm WeatherDisplay:10.37 W/m2 FEW
21:11 0.3 °F /  -17.6 °C -0.5 °F /  -18.1 °C 1015.8in /  34395hPa WNW 0.5mph /  0.8km/h 1.6mph /  2.6km/h 94% 0.0in /  0mm WeatherDisplay:10.37 W/m2 FEW
21:16 0.3 °F /  -17.6 °C -0.5 °F /  -18.1 °C 1015.8in /  34395hPa West 2.9mph /  4.7km/h 5.6mph /  9km/h 94% 0.0in /  0mm WeatherDisplay:10.37 W/m2 FEW
21:21 0.3 °F /  -17.6 °C -0.6 °F /  -18.1 °C 1015.8in /  34395hPa West 1.3mph /  2.1km/h 5.6mph /  9km/h 94% 0.0in /  0mm WeatherDisplay:10.37 W/m2 FEW
21:26 0.3 °F /  -17.6 °C -0.6 °F /  -18.1 °C 1015.8in /  34395hPa West 0.8mph /  1.3km/h 5.6mph /  9km/h 94% 0.0in /  0mm WeatherDisplay:10.37 W/m2 FEW
21:31 0.3 °F /  -17.6 °C -0.6 °F /  -18.1 °C 1015.8in /  34395hPa SSW 1.0mph /  1.6km/h 1.6mph /  2.6km/h 94% 0.0in /  0mm WeatherDisplay:10.37 W/m2 FEW
21:36 0.2 °F /  -17.7 °C -0.6 °F /  -18.1 °C 1016.1in /  34405.1hPa West 2.7mph /  4.3km/h 5.6mph /  9km/h 94% 0.0in /  0mm WeatherDisplay:10.37 W/m2 FEW
21:41 0.2 °F /  -17.7 °C -0.7 °F /  -18.2 °C 1015.8in /  34395hPa WSW 4.5mph /  7.2km/h 13.0mph /  20.9km/h 94% 0.0in /  0mm WeatherDisplay:10.37 W/m2 FEW
21:46 0.1 °F /  -17.7 °C -0.7 °F /  -18.2 °C 1015.8in /  34395hPa NNW 5.5mph /  8.9km/h 14.8mph /  23.8km/h 94% 0.0in /  0mm WeatherDisplay:10.37 W/m2 FEW
21:51 0.1 °F /  -17.7 °C -0.8 °F /  -18.2 °C 1015.8in /  34395hPa NW 0.6mph /  1km/h 3.2mph /  5.1km/h 94% 0.0in /  0mm WeatherDisplay:10.37 W/m2 FEW
21:56 0.0 °F /  -17.8 °C -0.8 °F /  -18.2 °C 1015.8in /  34395hPa Calm     94% 0.0in /  0mm WeatherDisplay:10.37 W/m2 FEW
22:01 0.0 °F /  -17.8 °C -0.8 °F /  -18.2 °C 1015.8in /  34395hPa NW 1.1mph /  1.8km/h 1.6mph /  2.6km/h 94% 0.0in /  0mm WeatherDisplay:10.37 W/m2 FEW
22:06 -0.1 °F /  -17.8 °C -0.9 °F /  -18.3 °C 1015.8in /  34395hPa SW 1.6mph /  2.6km/h 5.6mph /  9km/h 94% 0.0in /  0mm WeatherDisplay:10.37 W/m2 FEW
22:11 -0.1 °F /  -17.8 °C -0.9 °F /  -18.3 °C 1016.1in /  34405.1hPa Calm     94% 0.0in /  0mm WeatherDisplay:10.37 W/m2 FEW
22:16 -0.1 °F /  -17.8 °C -0.9 °F /  -18.3 °C 1015.8in /  34395hPa West 0.8mph /  1.3km/h 5.6mph /  9km/h 94% 0.0in /  0mm WeatherDisplay:10.37 W/m2 FEW
22:21 -0.1 °F /  -17.8 °C -0.9 °F /  -18.3 °C 1016.1in /  34405.1hPa Calm   1.6mph /  2.6km/h 94% 0.0in /  0mm WeatherDisplay:10.37 W/m2 FEW
22:26 -0.1 °F /  -17.8 °C -0.9 °F /  -18.3 °C 1016.1in /  34405.1hPa Calm     94% 0.0in /  0mm WeatherDisplay:10.37 W/m2 FEW
22:31 -0.2 °F /  -17.9 °C -1.0 °F /  -18.3 °C 1016.1in /  34405.1hPa WSW 1.0mph /  1.6km/h   94% 0.0in /  0mm WeatherDisplay:10.37 W/m2 FEW
22:36 -0.2 °F /  -17.9 °C -1.0 °F /  -18.3 °C 1016.1in /  34405.1hPa West 1.1mph /  1.8km/h 5.6mph /  9km/h 94% 0.0in /  0mm WeatherDisplay:10.37 W/m2 FEW
22:41 -0.2 °F /  -17.9 °C -1.0 °F /  -18.3 °C 1016.1in /  34405.1hPa Calm     94% 0.0in /  0mm WeatherDisplay:10.37 W/m2 FEW
22:46 -0.2 °F /  -17.9 °C -1.1 °F /  -18.4 °C 1016.1in /  34405.1hPa West 2.6mph /  4.2km/h 5.6mph /  9km/h 94% 0.0in /  0mm WeatherDisplay:10.37 W/m2 FEW
22:52 -0.2 °F /  -17.9 °C -1.1 °F /  -18.4 °C 1016.1in /  34405.1hPa SW 2.4mph /  3.9km/h 4.8mph /  7.7km/h 94% 0.0in /  0mm WeatherDisplay:10.37 W/m2 FEW
22:57 -0.2 °F /  -17.9 °C -1.1 °F /  -18.4 °C 1015.8in /  34395hPa West 2.1mph /  3.4km/h 6.4mph /  10.3km/h 94% 0.0in /  0mm WeatherDisplay:10.37 W/m2 FEW
23:02 -0.3 °F /  -17.9 °C -1.1 °F /  -18.4 °C 1016.1in /  34405.1hPa SSW 1.1mph /  1.8km/h   94% 0.0in /  0mm WeatherDisplay:10.37 W/m2 FEW
23:08 -0.3 °F /  -17.9 °C -1.1 °F /  -18.4 °C 1016.1in /  34405.1hPa Calm     94% 0.0in /  0mm WeatherDisplay:10.37 W/m2 FEW
23:13 -0.3 °F /  -17.9 °C -1.1 °F /  -18.4 °C 1016.1in /  34405.1hPa WSW 0.3mph /  0.5km/h 5.6mph /  9km/h 94% 0.0in /  0mm WeatherDisplay:10.37 W/m2 FEW
23:18 -0.2 °F /  -17.9 °C -1.1 °F /  -18.4 °C 1016.1in /  34405.1hPa Calm     94% 0.0in /  0mm WeatherDisplay:10.37 W/m2 FEW
23:23 -0.2 °F /  -17.9 °C -1.1 °F /  -18.4 °C 1016.1in /  34405.1hPa NNW 2.9mph /  4.7km/h 5.6mph /  9km/h 94% 0.0in /  0mm WeatherDisplay:10.37 W/m2 FEW
23:28 -0.2 °F /  -17.9 °C -1.1 °F /  -18.4 °C 1016.1in /  34405.1hPa Calm   3.2mph /  5.1km/h 94% 0.0in /  0mm WeatherDisplay:10.37 W/m2 FEW
23:33 -0.2 °F /  -17.9 °C -1.1 °F /  -18.4 °C 1016.1in /  34405.1hPa Calm     94% 0.0in /  0mm WeatherDisplay:10.37 W/m2 FEW
23:38 -0.2 °F /  -17.9 °C -1.0 °F /  -18.3 °C 1016.1in /  34405.1hPa Calm     94% 0.0in /  0mm WeatherDisplay:10.37 W/m2 FEW
23:43 -0.2 °F /  -17.9 °C -1.0 °F /  -18.3 °C 1016.1in /  34405.1hPa WNW 0.5mph /  0.8km/h 3.7mph /  6km/h 94% 0.0in /  0mm WeatherDisplay:10.37 W/m2 FEW
23:48 -0.2 °F /  -17.9 °C -1.0 °F /  -18.3 °C 1016.1in /  34405.1hPa WNW 1.8mph /  2.9km/h 5.6mph /  9km/h 94% 0.0in /  0mm WeatherDisplay:10.37 W/m2 FEW
23:53 -0.2 °F /  -17.9 °C -1.0 °F /  -18.3 °C 1016.1in /  34405.1hPa Calm     94% 0.0in /  0mm WeatherDisplay:10.37 W/m2 FEW
23:58 -0.2 °F /  -17.9 °C -1.0 °F /  -18.3 °C 1016.1in /  34405.1hPa West 3.9mph /  6.3km/h 9.3mph /  15km/h 94% 0.0in /  0mm WeatherDisplay:10.37 W/m2 FEW
Tuulensuunkaari, Veikkola, Suomi
Compliments of Weather Underground - 2.75 mb